MyTimes logo

TIMES

Webb Imagery

23/01/2000
Cowes Classic
500m Swim / 4.0km Run - Local Residents

(Click on competitor name to view personalised results)

Name
Race #
Category
Team Name
Time
(h:mm:ss)
Avg Speed
km/hr
OAll
Place
Cat
Place
HOLLINS Peter#63Local Senior Male0:22:53 11.8 11
FLEISNER Rob#208Local Over 40 Male0:25:43 10.5 21
YUSKO Bill#239Local Over 40 Male0:25:45 10.5 32
DALLINGER Chris#59Local Senior Male0:26:26 10.2 42
YUSKO Daniel#238Local Junior Male0:26:50 10.1 51
SPOTTISWOOD James#234Local Junior Male0:27:29 9.8 62
DALLINGER Andrew#62Local Senior Male0:28:01 9.6 73
HEWETT Noel#53Local Senior Male0:28:08 9.6 84
STERLAND Chantelle#241Local Senior Female0:28:35 9.4 91
MC HENRY Andrew#220Local Junior Male0:28:39 9.4 103
BRADEN Michael#39Local Senior Male0:28:56 9.3 115
ROLLAND Thierry#23Local Senior Male0:29:02 9.3 126
CONN Steve#216Local Over 40 Male0:29:13 9.2 133
MARSHALL Luke#61Local Senior Male0:29:25 9.2 147
KENT Ryan#214Local Junior Male0:29:46 9.1 154
CARTER Dean#218Local Over 40 Male0:29:48 9.1 164
BROWN Matthew#177Local Junior Male0:29:53 9 175
HACKETT John#74Local Senior Male0:30:26 8.9 188
TREVENA Martin#29Local Senior Male0:30:47 8.8 199
MATTHEWS Robert#175Local Over 40 Male0:30:59 8.7 205
KEADY Richard#165Local Over 40 Male0:31:02 8.7 216
BREWIN Dennis#198Local Over 40 Male0:31:29 8.6 227
TAYLOR Graham#49Local Senior Male0:31:50 8.5 2310
SCHEPEMAKER Nick#38Local Senior Male0:32:17 8.4 2411
ZOANETTI Luke#193Local Junior Male0:32:25 8.3 256
FLEISNER Paul#233Local Over 40 Male0:32:34 8.3 268
RODGERS Adam#163Local Junior Male0:33:13 8.1 277
DALLINGER Brian#210Local Over 40 Male0:33:27 8.1 289
EVANS Bree#213Local Junior Female0:33:37 8 291
DOOM Kathy#217Local Senior Female0:33:42 8 302
LEED ??#54Local Senior Male0:33:46 8 3112
MANNING Simon#42Local Senior Male0:34:22 7.9 3213
SWINDLEY David#15Local Senior Male0:36:12 7.5 3314
PRENDERGAST Kevin#178Local Over 40 Male0:36:12 7.5 3410
HUNTRISS Nicole#191Local Senior Female0:36:35 7.4 353
YUSKO Imogen#240Local Junior Female0:36:36 7.4 362
TAYLOR Rick#199Local Over 40 Male0:37:14 7.3 3711
ROOKS David#28Local Senior Male0:37:32 7.2 3815
FREEMAN Heather#201Local Senior Female0:37:33 7.2 394
JOHNSTON Brian#200Local Over 40 Male0:37:55 7.1 4012
FLENTJE Kate#237Local Junior Female0:39:29 6.8 413
REEK George#219Local Over 40 Male0:42:38 6.3 4213